Time;durP1;ratioP1;P1;durP2;ratioP2;P2;SDS_P1;SDS_P2;PMS_P1;PMS_P2;Temp;Humidity;BMP_temperature;BMP_pressure;BME280_temperature;BME280_humidity;BME280_pressure;Samples;Min_cycle;Max_cycle;Signal;HPM_P1;HPM_P2
2022/05/29 00:08:04;;;;;;;;;;;9.50;99.90;;;;;;5070424;28;20286;-87
2022/05/29 00:16:35;;;;;;;;;;;9.50;99.90;;;;;;5082699;28;19915;-87
2022/05/29 00:19:13;;;;;;;;;;;9.40;99.90;;;;;;5098026;28;20294;-73
2022/05/29 00:21:39;;;;;;;;;;;9.40;99.90;;;;;;5075903;28;19916;-72
2022/05/29 00:24:06;;;;;;;;;;;9.40;99.90;;;;;;5084118;28;20287;-73
2022/05/29 00:26:31;;;;;;;;;;;9.40;99.90;;;;;;5090605;28;19966;-73
2022/05/29 00:28:57;;;;;;;;;;;9.40;99.90;;;;;;5081195;28;19912;-72
2022/05/29 00:31:23;;;;;;;;;;;9.40;99.90;;;;;;5076507;28;19939;-73
2022/05/29 00:33:48;;;;;;;;;;;9.30;99.90;;;;;;5094181;28;19908;-74
2022/05/29 00:36:15;;;;;;;;;;;9.30;99.90;;;;;;5090338;28;19912;-73
2022/05/29 00:38:42;;;;;;;;;;;9.30;99.90;;;;;;5083377;28;19998;-73
2022/05/29 00:41:22;;;;;;;;;;;9.30;99.90;;;;;;5090069;28;20001;-73
2022/05/29 00:44:07;;;;;;;;;;;9.30;99.90;;;;;;5085682;28;19916;-73
2022/05/29 00:46:34;;;;;;;;;;;9.20;99.90;;;;;;5074475;28;20378;-73
2022/05/29 00:49:07;;;;;;;;;;;9.20;99.90;;;;;;5073783;28;19912;-87
2022/05/29 00:55:06;;;;;;;;;;;9.20;99.90;;;;;;5075328;28;19954;-87
2022/05/29 01:06:52;;;;;;;;;;;9.10;99.90;;;;;;5083435;28;19915;-87
2022/05/29 01:09:19;;;;;;;;;;;9.10;99.90;;;;;;5075508;28;19912;-87
2022/05/29 01:14:56;;;;;;;;;;;9.00;99.90;;;;;;5087161;28;19919;-87
2022/05/29 01:17:45;;;;;;;;;;;9.00;99.90;;;;;;5074910;28;19913;-73
2022/05/29 01:20:21;;;;;;;;;;;9.00;99.90;;;;;;5017727;28;19967;-73
2022/05/29 01:22:49;;;;;;;;;;;9.00;99.90;;;;;;5023249;28;19932;-73
2022/05/29 01:25:26;;;;;;;;;;;9.00;99.90;;;;;;5018804;28;19947;-73
2022/05/29 01:28:04;;;;;;;;;;;9.00;99.90;;;;;;5037884;28;19917;-73
2022/05/29 01:30:31;;;;;;;;;;;9.00;99.90;;;;;;5028836;28;19921;-72
2022/05/29 01:32:57;;;;;;;;;;;9.00;99.90;;;;;;5047618;28;20046;-73
2022/05/29 01:35:24;;;;;;;;;;;8.80;99.90;;;;;;5039932;28;19999;-73
2022/05/29 01:37:58;;;;;;;;;;;8.70;99.90;;;;;;5021056;28;19914;-73
2022/05/29 01:40:26;;;;;;;;;;;8.70;99.90;;;;;;5035577;28;19924;-73
2022/05/29 01:42:57;;;;;;;;;;;8.60;99.90;;;;;;5031884;28;19991;-73
2022/05/29 01:45:53;;;;;;;;;;;8.60;99.90;;;;;;5031020;28;19983;-74
2022/05/29 01:48:24;;;;;;;;;;;8.60;99.90;;;;;;5019374;28;19963;-87
2022/05/29 01:54:27;;;;;;;;;;;8.50;99.90;;;;;;5031863;28;19924;-87
2022/05/29 02:00:01;;;;;;;;;;;8.60;99.90;;;;;;5003120;28;20440;-87
2022/05/29 02:02:45;;;;;;;;;;;8.60;99.90;;;;;;5014044;28;19909;-86
2022/05/29 02:08:17;;;;;;;;;;;8.80;99.90;;;;;;5001293;28;19936;-87
2022/05/29 02:11:18;;;;;;;;;;;8.90;99.90;;;;;;5021110;28;20063;-87
2022/05/29 02:16:59;;;;;;;;;;;9.00;99.90;;;;;;5013530;28;20372;-87
2022/05/29 02:19:28;;;;;;;;;;;9.00;99.90;;;;;;5012555;28;19917;-73
2022/05/29 02:22:01;;;;;;;;;;;9.00;99.90;;;;;;5009284;28;19917;-73
2022/05/29 02:24:37;;;;;;;;;;;9.00;99.90;;;;;;5011554;28;19918;-73
2022/05/29 02:27:07;;;;;;;;;;;9.00;99.90;;;;;;5018079;28;19940;-73
2022/05/29 02:29:33;;;;;;;;;;;9.10;99.90;;;;;;5026112;28;19968;-73
2022/05/29 02:32:13;;;;;;;;;;;9.10;99.90;;;;;;5029862;28;19913;-74
2022/05/29 02:34:44;;;;;;;;;;;9.10;99.90;;;;;;5076097;28;20309;-73
2022/05/29 02:37:19;;;;;;;;;;;9.00;99.90;;;;;;5075156;28;20433;-73
2022/05/29 02:39:53;;;;;;;;;;;9.10;99.90;;;;;;5076968;28;19913;-73
2022/05/29 02:42:29;;;;;;;;;;;9.10;99.90;;;;;;5077364;28;19916;-73
2022/05/29 02:44:54;;;;;;;;;;;9.00;99.90;;;;;;5076833;28;19913;-73
2022/05/29 02:47:33;;;;;;;;;;;9.00;99.90;;;;;;5106002;28;19923;-73
2022/05/29 02:56:39;;;;;;;;;;;9.00;99.90;;;;;;5080730;28;19920;-87
2022/05/29 03:02:13;;;;;;;;;;;9.00;99.90;;;;;;5096406;28;19993;-87
2022/05/29 03:04:38;;;;;;;;;;;9.10;99.90;;;;;;5074512;28;19908;-73
2022/05/29 03:07:06;;;;;;;;;;;9.20;99.90;;;;;;5094454;28;19981;-73
2022/05/29 03:09:32;;;;;;;;;;;9.20;99.90;;;;;;5074158;28;19935;-73
2022/05/29 03:11:58;;;;;;;;;;;9.30;99.90;;;;;;5083919;28;20356;-73
2022/05/29 03:14:39;;;;;;;;;;;9.40;99.90;;;;;;5075442;28;20352;-73
2022/05/29 03:17:21;;;;;;;;;;;9.40;99.90;;;;;;5080277;28;20351;-73
2022/05/29 03:20:08;;;;;;;;;;;9.50;99.90;;;;;;5090017;28;20277;-73
2022/05/29 03:22:40;;;;;;;;;;;9.50;99.90;;;;;;5083466;28;19947;-73
2022/05/29 03:25:31;;;;;;;;;;;9.60;99.90;;;;;;5081890;28;19908;-73
2022/05/29 03:27:58;;;;;;;;;;;9.60;99.90;;;;;;5087360;28;20011;-73
2022/05/29 03:30:32;;;;;;;;;;;9.60;99.90;;;;;;5076225;28;19923;-73
2022/05/29 03:32:59;;;;;;;;;;;9.60;99.90;;;;;;5072804;28;19970;-73
2022/05/29 03:35:27;;;;;;;;;;;9.60;99.90;;;;;;5088444;28;20259;-73
2022/05/29 03:37:53;;;;;;;;;;;9.60;99.90;;;;;;5084992;28;19977;-73
2022/05/29 03:40:19;;;;;;;;;;;9.60;99.90;;;;;;5079094;28;19917;-74
2022/05/29 03:42:45;;;;;;;;;;;9.60;99.90;;;;;;5093300;28;19950;-73
2022/05/29 03:45:11;;;;;;;;;;;9.60;99.90;;;;;;5078543;28;19956;-73
2022/05/29 03:47:37;;;;;;;;;;;9.60;99.90;;;;;;5077524;28;20011;-73
2022/05/29 03:50:36;;;;;;;;;;;9.50;99.90;;;;;;5084600;28;19969;-87
2022/05/29 03:53:24;;;;;;;;;;;9.50;99.90;;;;;;5112581;28;19912;-87
2022/05/29 03:56:12;;;;;;;;;;;9.40;99.90;;;;;;5076405;28;19934;-87
2022/05/29 04:01:42;;;;;;;;;;;9.40;99.90;;;;;;5076087;28;19962;-88
2022/05/29 04:04:08;;;;;;;;;;;9.40;99.90;;;;;;5083041;28;19918;-87
2022/05/29 04:06:40;;;;;;;;;;;9.30;99.90;;;;;;5076526;28;19995;-88
2022/05/29 04:12:33;;;;;;;;;;;9.30;99.90;;;;;;5070934;28;20332;-87
2022/05/29 04:14:59;;;;;;;;;;;9.30;99.90;;;;;;5072878;28;19920;-87
2022/05/29 04:17:36;;;;;;;;;;;9.40;99.90;;;;;;5076067;28;19912;-87
2022/05/29 04:20:19;;;;;;;;;;;9.40;99.90;;;;;;5076298;28;19912;-86
2022/05/29 04:26:06;;;;;;;;;;;9.40;99.90;;;;;;5074105;28;19916;-87
2022/05/29 04:31:37;;;;;;;;;;;9.40;99.90;;;;;;5075663;28;19966;-83
2022/05/29 04:34:06;;;;;;;;;;;9.40;99.90;;;;;;5075250;28;19916;-84
2022/05/29 04:36:33;;;;;;;;;;;9.40;99.90;;;;;;5084520;28;19912;-73
2022/05/29 04:38:59;;;;;;;;;;;9.40;99.90;;;;;;5061599;28;19950;-74
2022/05/29 04:41:25;;;;;;;;;;;9.40;99.90;;;;;;5092215;28;20290;-70
2022/05/29 04:43:52;;;;;;;;;;;9.40;99.90;;;;;;5074432;28;19935;-70
2022/05/29 04:46:18;;;;;;;;;;;9.50;99.90;;;;;;5091021;28;20390;-70
2022/05/29 04:48:43;;;;;;;;;;;9.50;99.90;;;;;;5084271;28;19912;-72
2022/05/29 04:51:09;;;;;;;;;;;9.50;99.90;;;;;;5075969;28;19916;-73
2022/05/29 04:53:36;;;;;;;;;;;9.50;99.90;;;;;;5075829;28;19912;-73
2022/05/29 04:56:03;;;;;;;;;;;9.60;99.90;;;;;;5088404;28;20110;-74
2022/05/29 04:58:29;;;;;;;;;;;9.60;99.90;;;;;;5078977;28;19924;-73
2022/05/29 05:00:55;;;;;;;;;;;9.60;99.90;;;;;;5073369;28;19923;-73
2022/05/29 05:03:20;;;;;;;;;;;9.60;99.90;;;;;;5075127;28;20301;-73
2022/05/29 05:05:47;;;;;;;;;;;9.70;99.90;;;;;;5086783;28;20002;-72
2022/05/29 05:08:13;;;;;;;;;;;9.70;99.90;;;;;;5090338;28;19912;-73
2022/05/29 05:10:39;;;;;;;;;;;9.80;99.90;;;;;;5076043;28;19916;-73
2022/05/29 05:13:05;;;;;;;;;;;9.80;99.90;;;;;;5073028;28;19909;-73
2022/05/29 05:15:31;;;;;;;;;;;9.90;99.90;;;;;;5076558;28;19918;-80
2022/05/29 05:24:04;;;;;;;;;;;10.10;99.90;;;;;;5089645;28;19923;-88
2022/05/29 05:26:29;;;;;;;;;;;10.20;99.90;;;;;;5085517;28;19963;-86
2022/05/29 05:28:55;;;;;;;;;;;10.30;99.90;;;;;;5090066;28;19912;-88
2022/05/29 05:31:20;;;;;;;;;;;10.30;99.90;;;;;;5094437;28;19920;-87
2022/05/29 05:33:46;;;;;;;;;;;10.40;99.90;;;;;;5087186;28;19909;-87
2022/05/29 05:36:12;;;;;;;;;;;10.50;99.90;;;;;;5094680;28;19912;-87
2022/05/29 05:38:37;;;;;;;;;;;10.50;99.90;;;;;;5094256;28;19938;-87
2022/05/29 05:41:03;;;;;;;;;;;10.60;99.90;;;;;;5094230;28;20006;-88
2022/05/29 05:43:31;;;;;;;;;;;10.80;99.90;;;;;;5093996;28;19950;-88
2022/05/29 05:45:56;;;;;;;;;;;10.70;99.90;;;;;;5070439;28;19967;-88
2022/05/29 05:48:25;;;;;;;;;;;10.80;99.90;;;;;;5094252;28;19952;-87
2022/05/29 05:50:54;;;;;;;;;;;10.90;99.90;;;;;;5094777;28;19908;-87
2022/05/29 05:53:20;;;;;;;;;;;10.90;99.90;;;;;;5094429;28;20003;-88
2022/05/29 05:55:45;;;;;;;;;;;11.00;99.90;;;;;;5089414;28;19974;-84
2022/05/29 05:58:11;;;;;;;;;;;11.00;99.90;;;;;;5059993;28;19965;-87
2022/05/29 06:00:36;;;;;;;;;;;11.20;99.90;;;;;;5090628;28;19912;-87
2022/05/29 06:03:02;;;;;;;;;;;11.20;99.90;;;;;;5085157;28;20375;-87
2022/05/29 06:05:28;;;;;;;;;;;11.30;99.90;;;;;;5091041;28;19962;-75
2022/05/29 06:07:53;;;;;;;;;;;11.30;99.90;;;;;;5093337;28;20022;-75
2022/05/29 06:10:19;;;;;;;;;;;11.40;99.90;;;;;;5096899;28;19934;-75
2022/05/29 06:12:44;;;;;;;;;;;11.50;99.90;;;;;;5063917;28;19919;-74
2022/05/29 06:15:10;;;;;;;;;;;11.60;99.90;;;;;;5088576;28;19914;-75
2022/05/29 06:17:36;;;;;;;;;;;11.70;99.90;;;;;;5096896;28;19909;-75
2022/05/29 06:20:01;;;;;;;;;;;11.70;99.90;;;;;;5096880;28;19908;-74
2022/05/29 06:22:27;;;;;;;;;;;11.80;99.90;;;;;;5098119;28;19912;-89
2022/05/29 06:24:52;;;;;;;;;;;11.90;99.90;;;;;;5097907;28;20024;-88
2022/05/29 06:27:18;;;;;;;;;;;12.00;99.90;;;;;;5087952;28;20283;-88
2022/05/29 06:29:43;;;;;;;;;;;12.10;99.90;;;;;;5093981;28;19945;-89
2022/05/29 06:32:15;;;;;;;;;;;12.10;99.90;;;;;;5097784;28;19915;-89
2022/05/29 06:34:40;;;;;;;;;;;12.20;99.90;;;;;;5097581;28;19908;-89
2022/05/29 06:37:06;;;;;;;;;;;12.50;99.90;;;;;;5080089;28;19916;-88
2022/05/29 06:39:37;;;;;;;;;;;12.40;99.90;;;;;;5078483;28;20197;-85
2022/05/29 06:42:03;;;;;;;;;;;12.60;99.90;;;;;;5079087;28;19956;-84
2022/05/29 06:44:29;;;;;;;;;;;12.70;99.90;;;;;;5076154;28;19942;-84
2022/05/29 06:46:54;;;;;;;;;;;12.70;99.90;;;;;;5069842;28;19916;-85
2022/05/29 06:49:24;;;;;;;;;;;12.80;99.90;;;;;;5074705;28;19908;-84
2022/05/29 06:51:51;;;;;;;;;;;13.00;99.90;;;;;;5088727;28;19943;-84
2022/05/29 06:54:17;;;;;;;;;;;13.00;99.90;;;;;;5097140;28;20267;-84
2022/05/29 06:56:55;;;;;;;;;;;13.10;99.90;;;;;;5078845;28;19920;-87
2022/05/29 07:08:07;;;;;;;;;;;13.50;99.90;;;;;;5063980;28;19913;-73
2022/05/29 07:10:33;;;;;;;;;;;13.50;99.90;;;;;;5059286;28;19952;-73
2022/05/29 07:13:00;;;;;;;;;;;13.60;99.90;;;;;;5059233;28;19916;-73
2022/05/29 07:15:26;;;;;;;;;;;13.70;99.90;;;;;;5066398;28;19909;-74
2022/05/29 07:17:55;;;;;;;;;;;13.80;99.90;;;;;;5054410;28;19909;-73
2022/05/29 07:20:20;;;;;;;;;;;13.80;99.90;;;;;;5056160;28;19920;-74
2022/05/29 07:26:18;;;;;;;;;;;13.90;99.90;;;;;;5066220;28;19916;-87
2022/05/29 07:29:06;;;;;;;;;;;13.80;99.90;;;;;;5052159;28;20050;-87
2022/05/29 07:31:37;;;;;;;;;;;14.00;99.90;;;;;;5070656;28;19913;-87
2022/05/29 07:34:30;;;;;;;;;;;14.10;99.90;;;;;;5067059;28;19919;-87
2022/05/29 07:37:01;;;;;;;;;;;14.00;99.90;;;;;;5065970;28;19952;-74
2022/05/29 07:39:26;;;;;;;;;;;13.90;99.90;;;;;;5064555;28;19958;-74
2022/05/29 07:44:36;;;;;;;;;;;14.00;99.90;;;;;;5077522;28;20049;-73
2022/05/29 07:47:02;;;;;;;;;;;14.30;99.90;;;;;;5088204;28;20363;-73
2022/05/29 07:49:27;;;;;;;;;;;14.60;99.90;;;;;;5077461;28;19908;-73
2022/05/29 07:51:53;;;;;;;;;;;15.00;99.90;;;;;;5081577;28;19912;-87
2022/05/29 07:57:37;;;;;;;;;;;15.30;99.90;;;;;;5076416;28;20007;-86
2022/05/29 08:00:08;;;;;;;;;;;15.40;99.90;;;;;;5078381;28;20082;-86
2022/05/29 08:02:37;;;;;;;;;;;15.50;99.90;;;;;;5096410;28;19908;-87
2022/05/29 08:05:37;;;;;;;;;;;15.80;99.90;;;;;;5096384;28;20110;-87
2022/05/29 08:08:08;;;;;;;;;;;16.00;99.90;;;;;;5084253;28;19936;-84
2022/05/29 08:10:34;;;;;;;;;;;16.30;99.90;;;;;;5081893;28;20373;-85
2022/05/29 08:13:07;;;;;;;;;;;16.60;99.90;;;;;;5093304;28;20382;-86
2022/05/29 08:15:43;;;;;;;;;;;16.90;99.90;;;;;;5069497;28;19912;-79
2022/05/29 08:18:09;;;;;;;;;;;17.20;99.90;;;;;;5080601;28;19948;-73
2022/05/29 08:20:36;;;;;;;;;;;17.40;99.90;;;;;;5084206;28;19919;-74
2022/05/29 08:23:05;;;;;;;;;;;17.60;99.90;;;;;;5082113;28;19946;-71
2022/05/29 08:30:59;;;;;;;;;;;18.00;99.90;;;;;;5094199;28;19919;-72
2022/05/29 08:33:27;;;;;;;;;;;18.00;99.90;;;;;;5087634;28;19909;-72
2022/05/29 08:35:55;;;;;;;;;;;17.90;99.90;;;;;;5055671;28;20012;-72
2022/05/29 08:38:21;;;;;;;;;;;17.90;99.90;;;;;;5055687;28;20367;-72
2022/05/29 08:40:50;;;;;;;;;;;17.70;99.90;;;;;;5070184;28;19913;-72
2022/05/29 08:43:33;;;;;;;;;;;17.50;99.90;;;;;;5092260;28;19908;-72
2022/05/29 08:46:08;;;;;;;;;;;17.30;99.90;;;;;;5058559;28;19917;-72
2022/05/29 08:48:34;;;;;;;;;;;17.10;99.90;;;;;;5094098;28;19912;-71
2022/05/29 08:51:19;;;;;;;;;;;16.90;99.90;;;;;;5092758;28;19973;-72
2022/05/29 08:53:51;;;;;;;;;;;16.60;99.90;;;;;;5069689;28;19955;-71
2022/05/29 08:56:27;;;;;;;;;;;16.20;99.90;;;;;;5077150;28;20003;-71
2022/05/29 08:59:03;;;;;;;;;;;16.10;99.90;;;;;;5090160;28;19920;-70
2022/05/29 09:01:46;;;;;;;;;;;16.20;99.90;;;;;;5093939;28;19935;-71
2022/05/29 09:04:18;;;;;;;;;;;16.30;99.90;;;;;;5075724;28;20349;-74
2022/05/29 09:06:47;;;;;;;;;;;16.80;99.90;;;;;;5093777;28;20294;-74
2022/05/29 09:09:34;;;;;;;;;;;17.40;99.90;;;;;;5076453;28;19912;-85
2022/05/29 09:12:17;;;;;;;;;;;17.80;99.90;;;;;;5090937;28;19908;-83
2022/05/29 09:14:47;;;;;;;;;;;18.20;99.90;;;;;;5094176;28;19912;-84
2022/05/29 09:17:35;;;;;;;;;;;18.20;99.90;;;;;;5094373;28;19915;-85
2022/05/29 09:20:04;;;;;;;;;;;18.20;99.90;;;;;;5094105;28;19939;-85
2022/05/29 09:22:32;;;;;;;;;;;18.20;99.90;;;;;;5076700;28;19912;-75
2022/05/29 09:25:09;;;;;;;;;;;18.10;99.90;;;;;;5093464;28;19915;-75
2022/05/29 09:27:36;;;;;;;;;;;18.00;99.90;;;;;;5093644;28;19912;-72
2022/05/29 09:30:02;;;;;;;;;;;18.10;99.90;;;;;;5093308;28;19916;-74
2022/05/29 09:32:29;;;;;;;;;;;18.10;99.90;;;;;;5092974;28;20352;-75
2022/05/29 09:35:06;;;;;;;;;;;18.20;99.90;;;;;;5092067;28;19908;-75
2022/05/29 09:37:40;;;;;;;;;;;18.30;99.90;;;;;;5079715;28;20356;-84
2022/05/29 09:40:10;;;;;;;;;;;18.50;99.90;;;;;;5080491;28;19973;-84
2022/05/29 09:42:40;;;;;;;;;;;18.70;99.90;;;;;;5093790;28;20355;-84
2022/05/29 09:45:15;;;;;;;;;;;19.00;99.90;;;;;;5085776;28;20295;-84
2022/05/29 09:50:40;;;;;;;;;;;19.30;99.90;;;;;;5085661;28;19919;-84
2022/05/29 09:53:32;;;;;;;;;;;19.40;99.90;;;;;;5093849;28;19955;-74
2022/05/29 09:56:08;;;;;;;;;;;19.30;99.90;;;;;;5085327;28;19908;-74
2022/05/29 09:58:39;;;;;;;;;;;19.20;99.90;;;;;;5086577;28;20003;-74
2022/05/29 10:01:06;;;;;;;;;;;18.90;99.90;;;;;;5092768;28;19916;-74
2022/05/29 10:03:43;;;;;;;;;;;18.60;99.90;;;;;;5093061;28;19909;-73
2022/05/29 10:06:14;;;;;;;;;;;19.00;99.90;;;;;;5093130;28;19916;-74
2022/05/29 10:08:40;;;;;;;;;;;19.50;99.90;;;;;;5075442;28;19929;-82
2022/05/29 10:11:12;;;;;;;;;;;19.60;99.90;;;;;;5093350;28;19979;-82
2022/05/29 10:13:39;;;;;;;;;;;19.80;99.90;;;;;;5086753;28;19914;-83
2022/05/29 10:16:04;;;;;;;;;;;20.20;99.90;;;;;;5093295;28;19908;-83
2022/05/29 10:18:37;;;;;;;;;;;20.10;99.90;;;;;;5093141;28;19916;-82
2022/05/29 10:21:21;;;;;;;;;;;20.00;99.90;;;;;;5074879;28;20393;-83
2022/05/29 10:23:49;;;;;;;;;;;19.90;99.90;;;;;;5062303;28;19908;-83
2022/05/29 10:26:30;;;;;;;;;;;19.70;99.90;;;;;;5105950;28;20271;-83
2022/05/29 10:28:56;;;;;;;;;;;19.80;99.90;;;;;;5087348;28;19912;-82
2022/05/29 10:31:25;;;;;;;;;;;19.90;99.90;;;;;;5093129;28;19919;-83
2022/05/29 10:34:02;;;;;;;;;;;20.00;99.90;;;;;;5093045;28;19915;-83
2022/05/29 10:36:28;;;;;;;;;;;20.00;99.90;;;;;;5093073;28;19908;-82
2022/05/29 10:39:04;;;;;;;;;;;19.70;99.90;;;;;;5093422;28;19915;-82
2022/05/29 10:41:31;;;;;;;;;;;19.40;99.90;;;;;;5061464;28;19923;-82
2022/05/29 10:43:57;;;;;;;;;;;19.20;99.90;;;;;;5093380;28;19908;-82
2022/05/29 10:46:24;;;;;;;;;;;18.90;99.90;;;;;;5079985;28;19926;-82
2022/05/29 10:49:21;;;;;;;;;;;18.90;99.90;;;;;;5093076;28;19947;-82
2022/05/29 10:51:46;;;;;;;;;;;19.20;99.90;;;;;;5093024;28;19908;-82
2022/05/29 10:54:30;;;;;;;;;;;19.70;99.90;;;;;;5092941;28;20033;-74
2022/05/29 10:56:56;;;;;;;;;;;20.10;99.90;;;;;;5082705;28;19908;-73
2022/05/29 10:59:25;;;;;;;;;;;20.40;99.90;;;;;;5095868;28;20015;-74
2022/05/29 11:04:45;;;;;;;;;;;20.40;99.90;;;;;;5086307;28;19935;-73
2022/05/29 11:07:21;;;;;;;;;;;20.70;99.90;;;;;;5093940;28;19908;-73
2022/05/29 11:09:52;;;;;;;;;;;20.90;99.90;;;;;;5096641;28;19908;-73
2022/05/29 11:12:21;;;;;;;;;;;21.00;99.90;;;;;;5093945;28;19908;-73
2022/05/29 11:14:55;;;;;;;;;;;20.60;99.90;;;;;;5096075;28;20382;-74
2022/05/29 11:17:36;;;;;;;;;;;20.30;99.90;;;;;;5096006;28;19910;-73
2022/05/29 11:20:08;;;;;;;;;;;19.80;99.90;;;;;;5077882;28;20003;-73
2022/05/29 11:22:49;;;;;;;;;;;19.60;99.90;;;;;;5088347;28;19912;-73
2022/05/29 11:25:24;;;;;;;;;;;19.60;99.90;;;;;;5097121;28;19914;-83
2022/05/29 11:27:53;;;;;;;;;;;19.50;99.90;;;;;;5096873;28;19912;-85
2022/05/29 11:30:18;;;;;;;;;;;19.30;99.90;;;;;;5096598;28;19958;-85
2022/05/29 11:32:47;;;;;;;;;;;19.30;99.90;;;;;;5096543;28;20279;-85
2022/05/29 11:35:35;;;;;;;;;;;19.60;99.90;;;;;;5087931;28;19926;-85
2022/05/29 11:38:08;;;;;;;;;;;19.90;99.90;;;;;;5042422;28;19912;-85
2022/05/29 11:40:52;;;;;;;;;;;20.10;99.90;;;;;;5054122;28;19963;-85
2022/05/29 11:43:17;;;;;;;;;;;20.30;99.90;;;;;;5037207;28;19916;-85
2022/05/29 11:51:22;;;;;;;;;;;20.70;99.90;;;;;;5034054;28;19989;-84
2022/05/29 11:53:48;;;;;;;;;;;20.50;99.90;;;;;;5032590;28;19956;-74
2022/05/29 11:56:27;;;;;;;;;;;20.40;99.90;;;;;;5013086;28;19967;-71
2022/05/29 11:59:03;;;;;;;;;;;20.80;99.90;;;;;;5018222;28;19921;-73
2022/05/29 12:01:37;;;;;;;;;;;20.90;99.90;;;;;;5014341;28;19913;-75
2022/05/29 12:04:15;;;;;;;;;;;21.00;99.90;;;;;;5014071;28;19909;-73
2022/05/29 12:06:43;;;;;;;;;;;21.20;99.90;;;;;;5025221;28;19910;-74
2022/05/29 12:09:13;;;;;;;;;;;21.50;99.90;;;;;;5033112;28;19947;-73
2022/05/29 12:11:39;;;;;;;;;;;21.70;99.90;;;;;;5029293;28;20333;-75
2022/05/29 12:14:22;;;;;;;;;;;21.60;99.90;;;;;;5032505;28;19993;-75
2022/05/29 12:16:53;;;;;;;;;;;21.50;99.90;;;;;;5031865;28;19909;-75
2022/05/29 12:19:37;;;;;;;;;;;21.60;99.90;;;;;;5023126;28;19916;-75
2022/05/29 12:22:05;;;;;;;;;;;21.90;99.90;;;;;;5032130;28;19924;-75
2022/05/29 12:24:37;;;;;;;;;;;21.90;99.90;;;;;;5019857;28;19991;-74
2022/05/29 12:27:08;;;;;;;;;;;21.80;99.90;;;;;;5092921;28;20170;-75
2022/05/29 12:29:42;;;;;;;;;;;21.70;99.90;;;;;;5079699;28;19916;-75
2022/05/29 12:32:35;;;;;;;;;;;21.60;99.90;;;;;;5064982;28;19924;-74
2022/05/29 12:35:03;;;;;;;;;;;21.30;99.90;;;;;;5030156;28;19939;-75
2022/05/29 12:37:39;;;;;;;;;;;20.70;99.90;;;;;;5050545;28;19912;-74
2022/05/29 12:40:24;;;;;;;;;;;20.50;99.90;;;;;;5046789;28;19908;-75
2022/05/29 12:43:04;;;;;;;;;;;20.30;99.90;;;;;;5032059;28;20325;-74
2022/05/29 12:45:44;;;;;;;;;;;20.00;99.90;;;;;;5031443;28;19917;-73
2022/05/29 12:48:20;;;;;;;;;;;20.00;99.90;;;;;;5031945;28;19909;-73
2022/05/29 12:50:50;;;;;;;;;;;19.90;99.90;;;;;;5031830;28;19948;-75
2022/05/29 12:53:30;;;;;;;;;;;20.20;99.90;;;;;;5033232;28;19916;-75
2022/05/29 12:55:56;;;;;;;;;;;20.50;99.90;;;;;;5031867;28;19922;-74
2022/05/29 12:58:30;;;;;;;;;;;21.00;99.90;;;;;;5031340;28;19909;-75
2022/05/29 13:01:03;;;;;;;;;;;21.20;99.90;;;;;;5031274;28;20044;-74
2022/05/29 13:03:48;;;;;;;;;;;21.60;99.90;;;;;;5031591;28;20314;-74
2022/05/29 13:06:32;;;;;;;;;;;21.70;99.90;;;;;;5031688;28;19913;-75
2022/05/29 13:09:00;;;;;;;;;;;21.80;99.90;;;;;;5039153;28;19909;-74
2022/05/29 13:11:27;;;;;;;;;;;22.10;99.90;;;;;;5060525;28;19908;-74
2022/05/29 13:13:55;;;;;;;;;;;22.20;99.90;;;;;;5093752;28;19912;-74
2022/05/29 13:16:20;;;;;;;;;;;22.50;99.90;;;;;;5093832;28;19908;-74
2022/05/29 13:21:51;;;;;;;;;;;22.40;99.90;;;;;;5093984;28;20355;-74
2022/05/29 13:24:17;;;;;;;;;;;22.20;99.90;;;;;;5088147;28;19927;-74
2022/05/29 13:26:43;;;;;;;;;;;22.10;99.90;;;;;;5080261;28;20188;-75
2022/05/29 13:29:29;;;;;;;;;;;22.10;99.90;;;;;;5085790;28;19919;-74
2022/05/29 13:32:10;;;;;;;;;;;22.00;99.90;;;;;;5093125;28;19912;-74
2022/05/29 13:34:35;;;;;;;;;;;22.00;99.90;;;;;;5082532;28;19909;-74
2022/05/29 13:37:02;;;;;;;;;;;22.20;99.90;;;;;;5093574;28;19915;-74
2022/05/29 13:39:28;;;;;;;;;;;22.40;99.90;;;;;;5093428;28;19908;-74
2022/05/29 13:42:02;;;;;;;;;;;22.80;99.90;;;;;;5093727;28;20224;-74
2022/05/29 13:44:32;;;;;;;;;;;22.70;99.90;;;;;;5074997;28;19916;-75
2022/05/29 13:47:25;;;;;;;;;;;23.00;99.90;;;;;;5093369;28;19923;-75
2022/05/29 13:50:02;;;;;;;;;;;23.30;99.90;;;;;;5091392;28;19914;-76
2022/05/29 13:52:48;;;;;;;;;;;23.30;99.90;;;;;;5093244;28;19908;-75
2022/05/29 13:55:18;;;;;;;;;;;23.50;99.90;;;;;;5050347;28;19919;-75
2022/05/29 14:06:24;;;;;;;;;;;23.50;99.90;;;;;;5051169;28;19996;-75
2022/05/29 14:08:58;;;;;;;;;;;23.40;99.90;;;;;;5050575;28;19908;-75
2022/05/29 14:11:42;;;;;;;;;;;23.10;99.90;;;;;;5049274;28;19913;-75
2022/05/29 14:14:26;;;;;;;;;;;22.90;99.90;;;;;;5049936;28;19909;-75
2022/05/29 14:16:53;;;;;;;;;;;22.70;99.90;;;;;;5050652;28;19908;-74
2022/05/29 14:19:32;;;;;;;;;;;22.00;99.90;;;;;;5050657;28;19959;-75
2022/05/29 14:22:00;;;;;;;;;;;21.60;99.90;;;;;;5050513;28;19917;-75
2022/05/29 14:24:31;;;;;;;;;;;21.50;99.90;;;;;;5050301;28;19913;-74
2022/05/29 14:26:59;;;;;;;;;;;21.40;99.90;;;;;;5037376;28;19909;-74
2022/05/29 14:29:43;;;;;;;;;;;21.20;99.90;;;;;;5040507;28;19959;-75
2022/05/29 14:32:14;;;;;;;;;;;21.10;99.90;;;;;;5052032;28;19917;-74
2022/05/29 14:34:58;;;;;;;;;;;21.00;99.90;;;;;;5081598;28;19908;-74
2022/05/29 14:37:27;;;;;;;;;;;20.70;99.90;;;;;;5096910;28;19912;-74
2022/05/29 14:40:08;;;;;;;;;;;20.70;99.90;;;;;;5097000;28;19978;-74
2022/05/29 14:42:40;;;;;;;;;;;20.90;99.90;;;;;;5096876;28;19915;-74
2022/05/29 14:45:09;;;;;;;;;;;20.80;99.90;;;;;;5088422;28;19935;-76
2022/05/29 14:47:37;;;;;;;;;;;20.90;99.90;;;;;;5091820;28;19916;-74
2022/05/29 14:50:15;;;;;;;;;;;20.80;99.90;;;;;;5096661;28;19919;-74
2022/05/29 14:52:59;;;;;;;;;;;20.80;99.90;;;;;;5096476;28;19908;-75
2022/05/29 14:55:27;;;;;;;;;;;20.80;99.90;;;;;;5112066;28;19914;-75
2022/05/29 14:57:55;;;;;;;;;;;20.90;99.90;;;;;;5090540;28;19909;-75
2022/05/29 15:00:21;;;;;;;;;;;20.90;99.90;;;;;;5089469;28;20346;-75
2022/05/29 15:02:47;;;;;;;;;;;20.90;99.90;;;;;;5096381;28;19943;-74
2022/05/29 15:05:15;;;;;;;;;;;20.80;99.90;;;;;;5082914;28;19950;-73
2022/05/29 15:10:31;;;;;;;;;;;20.40;99.90;;;;;;5096525;28;19931;-77
2022/05/29 15:13:00;;;;;;;;;;;20.60;99.90;;;;;;5082250;28;19959;-77
2022/05/29 15:15:33;;;;;;;;;;;20.60;99.90;;;;;;5075041;28;19908;-77
2022/05/29 15:18:10;;;;;;;;;;;20.70;99.90;;;;;;5095863;28;19908;-76
2022/05/29 15:26:26;;;;;;;;;;;21.20;99.90;;;;;;5077097;28;19955;-75
2022/05/29 15:28:52;;;;;;;;;;;21.60;99.90;;;;;;5090818;28;20343;-75
2022/05/29 15:31:25;;;;;;;;;;;21.90;99.90;;;;;;5090436;28;20337;-76
2022/05/29 15:33:59;;;;;;;;;;;22.40;99.90;;;;;;5071522;28;20264;-75
2022/05/29 15:36:30;;;;;;;;;;;23.50;99.90;;;;;;5088931;28;20309;-74
2022/05/29 15:38:56;;;;;;;;;;;24.50;99.90;;;;;;5086418;28;20275;-75
2022/05/29 15:41:33;;;;;;;;;;;24.90;99.90;;;;;;5095488;28;19912;-75
2022/05/29 15:44:01;;;;;;;;;;;24.10;99.90;;;;;;5095950;28;19915;-74
2022/05/29 15:46:48;;;;;;;;;;;23.20;99.90;;;;;;5082358;28;19916;-74
2022/05/29 15:49:13;;;;;;;;;;;22.40;99.90;;;;;;5095398;28;20467;-75
2022/05/29 15:51:52;;;;;;;;;;;21.90;99.90;;;;;;5077411;28;20109;-76
2022/05/29 15:54:20;;;;;;;;;;;21.60;99.90;;;;;;5095098;28;19908;-75
2022/05/29 15:56:52;;;;;;;;;;;21.20;99.90;;;;;;5095466;28;19966;-74
2022/05/29 15:59:36;;;;;;;;;;;20.50;99.90;;;;;;5095276;28;19963;-74
2022/05/29 16:02:04;;;;;;;;;;;20.50;99.90;;;;;;5095228;28;20006;-77
2022/05/29 16:04:44;;;;;;;;;;;20.50;99.90;;;;;;5095202;28;19908;-79
2022/05/29 16:07:29;;;;;;;;;;;20.30;99.90;;;;;;5095504;28;19946;-78
2022/05/29 16:09:58;;;;;;;;;;;20.20;99.90;;;;;;5095181;28;19909;-79
2022/05/29 16:12:26;;;;;;;;;;;20.00;99.90;;;;;;5091648;28;19991;-80
2022/05/29 16:14:52;;;;;;;;;;;20.00;99.90;;;;;;5095136;28;19962;-81
2022/05/29 16:17:38;;;;;;;;;;;19.80;99.90;;;;;;5095057;28;19962;-81
2022/05/29 16:20:13;;;;;;;;;;;19.70;99.90;;;;;;5080710;28;19912;-82
2022/05/29 16:22:46;;;;;;;;;;;19.80;99.90;;;;;;5076695;28;19919;-69
2022/05/29 16:25:15;;;;;;;;;;;19.90;99.90;;;;;;5084775;28;19908;-69
2022/05/29 16:27:49;;;;;;;;;;;19.90;99.90;;;;;;5086583;28;20003;-69
2022/05/29 16:30:23;;;;;;;;;;;19.80;99.90;;;;;;5083679;28;20253;-67
2022/05/29 16:32:53;;;;;;;;;;;20.70;99.90;;;;;;5094694;28;19916;-68
2022/05/29 16:35:24;;;;;;;;;;;21.20;99.90;;;;;;5083989;28;19915;-67
2022/05/29 16:49:38;;;;;;;;;;;19.70;99.90;;;;;;5094458;28;19915;-76
2022/05/29 16:52:17;;;;;;;;;;;19.40;99.90;;;;;;5093808;28;19912;-76
2022/05/29 16:54:43;;;;;;;;;;;19.40;99.90;;;;;;5094004;28;19915;-75
2022/05/29 16:57:10;;;;;;;;;;;19.20;99.90;;;;;;5094226;28;19909;-75
2022/05/29 16:59:42;;;;;;;;;;;19.00;99.90;;;;;;5094340;28;20260;-75
2022/05/29 17:02:11;;;;;;;;;;;18.80;99.90;;;;;;5077713;28;20417;-85
2022/05/29 17:04:43;;;;;;;;;;;18.60;99.90;;;;;;5093856;28;19909;-85